Time;durP1;ratioP1;P1;durP2;ratioP2;P2;SDS_P1;SDS_P2;PMS_P1;PMS_P2;Temp;Humidity;BMP_temperature;BMP_pressure;BME280_temperature;BME280_humidity;BME280_pressure;Samples;Min_cycle;Max_cycle;Signal;HPM_P1;HPM_P2
2022/12/03 00:00:29;;;;;;;48.53;26.25;;;;;;;5.71;99.72;98337.00;5090573;28;20036;-45
2022/12/03 00:02:54;;;;;;;43.80;26.20;;;;;;;5.68;99.67;98337.38;5091756;28;20013;-45
2022/12/03 00:05:20;;;;;;;43.85;27.67;;;;;;;5.59;99.57;98339.22;5090506;28;20115;-45
2022/12/03 00:07:46;;;;;;;46.75;28.15;;;;;;;5.64;99.67;98346.53;5092124;28;20099;-45
2022/12/03 00:10:11;;;;;;;46.30;29.45;;;;;;;5.80;100.00;98346.38;5090457;28;20031;-45
2022/12/03 00:12:37;;;;;;;45.58;29.15;;;;;;;5.91;100.00;98332.91;5091797;28;20431;-45
2022/12/03 00:15:04;;;;;;;44.50;26.30;;;;;;;5.92;99.94;98329.31;5091978;28;20020;-45
2022/12/03 00:17:30;;;;;;;40.70;25.67;;;;;;;5.94;100.00;98327.34;5091546;28;20020;-46
2022/12/03 00:19:55;;;;;;;45.00;26.55;;;;;;;5.91;99.37;98321.69;5091659;28;20397;-45
2022/12/03 00:22:21;;;;;;;38.75;26.33;;;;;;;5.80;98.94;98326.34;5091881;28;20115;-46
2022/12/03 00:24:46;;;;;;;44.17;27.65;;;;;;;5.70;99.73;98323.19;5090364;28;20024;-45
2022/12/03 00:27:12;;;;;;;42.90;26.05;;;;;;;5.64;99.36;98305.69;5091651;28;20371;-45
2022/12/03 00:29:38;;;;;;;40.88;25.73;;;;;;;5.60;99.43;98302.63;5090335;28;20398;-45
2022/12/03 00:32:03;;;;;;;50.55;27.30;;;;;;;5.59;99.77;98302.78;5073421;28;20489;-45
2022/12/03 00:34:29;;;;;;;39.80;25.30;;;;;;;5.65;100.00;98306.47;5091867;28;20028;-46
2022/12/03 00:36:54;;;;;;;40.85;26.23;;;;;;;5.74;100.00;98303.63;5091498;28;20098;-45
2022/12/03 00:39:20;;;;;;;41.33;26.45;;;;;;;5.86;100.00;98301.41;5090222;28;20047;-45
2022/12/03 00:41:46;;;;;;;38.42;25.45;;;;;;;5.94;100.00;98292.69;5090123;28;20043;-46
2022/12/03 00:44:11;;;;;;;45.85;26.25;;;;;;;5.97;99.85;98294.94;5091506;28;20485;-45
2022/12/03 00:46:37;;;;;;;41.00;24.50;;;;;;;5.89;99.13;98300.22;5090176;28;20027;-45
2022/12/03 00:49:02;;;;;;;45.60;24.45;;;;;;;5.83;99.75;98298.34;5091474;28;20052;-46
2022/12/03 00:51:28;;;;;;;42.20;25.15;;;;;;;5.90;99.91;98299.25;5091394;28;20486;-46
2022/12/03 00:53:54;;;;;;;41.35;24.75;;;;;;;6.06;100.00;98300.88;5091445;28;20043;-45
2022/12/03 00:56:19;;;;;;;44.88;24.42;;;;;;;6.19;99.97;98293.22;5091596;28;20028;-46
2022/12/03 00:58:45;;;;;;;44.17;24.30;;;;;;;6.26;100.00;98299.34;5091371;28;20093;-46
2022/12/03 01:01:10;;;;;;;37.60;24.92;;;;;;;6.30;99.43;98289.34;5090015;28;20032;-45
2022/12/03 01:03:36;;;;;;;39.42;25.33;;;;;;;6.34;99.18;98298.44;5090814;28;20020;-45
2022/12/03 01:06:02;;;;;;;39.45;25.35;;;;;;;6.22;98.79;98290.28;5093686;28;20489;-46
2022/12/03 01:08:27;;;;;;;47.78;27.42;;;;;;;6.00;98.35;98289.38;5095039;28;20020;-46
2022/12/03 01:10:53;;;;;;;39.53;25.70;;;;;;;5.91;97.67;98286.03;5094786;28;20073;-45
2022/12/03 01:13:19;;;;;;;39.03;25.10;;;;;;;5.86;98.54;98292.78;5094949;28;20023;-46
2022/12/03 01:15:44;;;;;;;44.80;26.23;;;;;;;5.88;98.17;98293.41;5094785;28;20436;-45
2022/12/03 01:18:10;;;;;;;40.33;25.48;;;;;;;5.92;99.17;98287.66;5093277;28;20040;-46
2022/12/03 01:20:37;;;;;;;41.65;26.58;;;;;;;5.92;98.75;98287.66;5093436;28;20028;-45
2022/12/03 01:23:03;;;;;;;43.67;28.20;;;;;;;5.81;97.89;98293.28;5094679;28;20028;-46
2022/12/03 01:25:29;;;;;;;44.13;25.80;;;;;;;5.59;97.41;98295.81;5093345;28;20044;-46
2022/12/03 01:27:55;;;;;;;51.58;28.63;;;;;;;5.52;97.59;98294.09;5094678;28;20052;-46
2022/12/03 01:30:20;;;;;;;47.03;28.42;;;;;;;5.51;97.80;98308.06;5094602;28;20024;-46
2022/12/03 01:32:46;;;;;;;49.85;28.10;;;;;;;5.56;98.41;98310.97;5094518;28;20032;-46
2022/12/03 01:35:11;;;;;;;43.33;25.77;;;;;;;5.69;99.06;98305.16;5093150;28;20482;-46
2022/12/03 01:37:37;;;;;;;44.40;29.23;;;;;;;5.76;99.60;98311.25;5094436;28;20031;-46
2022/12/03 01:40:04;;;;;;;70.00;49.92;;;;;;;5.81;99.01;98303.72;5093265;28;20118;-45
2022/12/03 01:42:33;;;;;;;44.53;26.80;;;;;;;5.88;98.92;98302.03;5094172;28;20024;-46
2022/12/03 01:45:00;;;;;;;42.28;26.20;;;;;;;5.98;99.41;98299.97;5094324;28;20028;-46
2022/12/03 01:47:32;;;;;;;38.40;25.98;;;;;;;6.01;98.83;98309.22;5092991;28;20486;-46
2022/12/03 01:50:16;;;;;;;44.60;27.80;;;;;;;6.05;98.81;98301.88;5092907;28;20043;-46
2022/12/03 01:52:43;;;;;;;44.03;25.00;;;;;;;6.18;98.65;98312.47;5094181;28;20088;-46
2022/12/03 01:55:27;;;;;;;73.13;30.50;;;;;;;6.12;98.35;98303.56;5076265;28;20502;-46
2022/12/03 01:58:01;;;;;;;46.22;28.70;;;;;;;6.12;98.76;98300.97;5092744;28;20028;-46
2022/12/03 02:00:27;;;;;;;38.63;26.25;;;;;;;5.98;97.59;98301.78;5094053;28;20016;-46
2022/12/03 02:02:59;;;;;;;42.00;26.17;;;;;;;5.90;97.92;98304.44;5092554;28;20439;-46
2022/12/03 02:05:28;;;;;;;41.45;26.65;;;;;;;5.91;98.71;98303.44;5094221;28;20032;-46
2022/12/03 02:07:55;;;;;;;38.90;27.20;;;;;;;5.99;98.43;98295.56;5092546;28;20035;-46
2022/12/03 02:10:25;;;;;;;41.58;26.40;;;;;;;6.10;98.49;98294.34;5092502;28;20028;-46
2022/12/03 02:12:58;;;;;;;39.28;23.95;;;;;;;6.03;97.94;98294.22;5092799;28;20034;-46
2022/12/03 02:15:24;;;;;;;39.45;23.88;;;;;;;5.94;97.62;98287.47;5092667;28;20020;-46
2022/12/03 02:17:50;;;;;;;42.80;25.85;;;;;;;5.88;97.21;98293.41;5093468;28;20055;-46
2022/12/03 02:20:16;;;;;;;48.25;28.05;;;;;;;5.75;97.65;98284.41;5093590;28;20032;-46
2022/12/03 02:23:08;;;;;;;43.53;26.27;;;;;;;5.70;97.11;98280.75;5093500;28;20394;-46
2022/12/03 02:25:35;;;;;;;44.47;25.83;;;;;;;5.55;97.22;98294.56;5077511;28;20519;-46
2022/12/03 02:28:03;;;;;;;43.85;25.92;;;;;;;5.54;97.90;98284.31;5092134;28;20028;-46
2022/12/03 02:30:30;;;;;;;35.75;23.50;;;;;;;5.59;98.09;98290.59;5093421;28;20048;-46
2022/12/03 02:32:57;;;;;;;40.20;24.42;;;;;;;5.75;98.60;98286.19;5092345;28;20135;-46
2022/12/03 02:35:26;;;;;;;30.92;20.58;;;;;;;5.95;98.29;98281.28;5093363;28;20031;-46
2022/12/03 02:37:57;;;;;;;33.35;22.13;;;;;;;6.13;98.50;98279.13;5092227;28;20020;-46
2022/12/03 02:40:27;;;;;;;33.05;22.45;;;;;;;6.29;98.11;98291.13;5093296;28;20507;-46
2022/12/03 02:42:57;;;;;;;31.65;20.90;;;;;;;6.40;98.00;98295.91;5091964;28;20066;-46
2022/12/03 02:45:33;;;;;;;27.85;21.42;;;;;;;6.49;98.16;98298.38;5091800;28;20031;-46
2022/12/03 02:48:05;;;;;;;32.53;22.45;;;;;;;6.57;98.50;98296.47;5093123;28;20111;-46
2022/12/03 02:50:36;;;;;;;54.88;44.25;;;;;;;6.63;98.31;98289.72;5092990;28;20012;-46
2022/12/03 02:53:06;;;;;;;39.63;24.33;;;;;;;6.63;97.56;98281.09;5091731;28;20077;-46
2022/12/03 02:55:33;;;;;;;40.88;30.63;;;;;;;6.63;97.41;98284.50;5093192;28;20028;-46
2022/12/03 02:58:02;;;;;;;39.85;27.08;;;;;;;6.65;96.79;98281.72;5091603;28;20035;-46
2022/12/03 03:00:27;;;;;;;44.75;24.83;;;;;;;6.68;96.73;98283.94;5091521;28;20027;-46
2022/12/03 03:02:53;;;;;;;49.17;34.65;;;;;;;6.71;96.62;98283.59;5092703;28;20020;-46
2022/12/03 03:05:22;;;;;;;32.38;21.75;;;;;;;6.69;96.31;98269.94;5091442;28;20028;-46
2022/12/03 03:07:49;;;;;;;36.95;20.80;;;;;;;6.67;96.28;98274.53;5092994;28;20024;-46
2022/12/03 03:10:19;;;;;;;32.53;21.52;;;;;;;6.70;96.41;98274.13;5092738;28;20616;-46
2022/12/03 03:12:45;;;;;;;58.35;45.13;;;;;;;6.73;97.16;98273.78;5091335;28;20026;-46
2022/12/03 03:15:12;;;;;;;43.03;31.00;;;;;;;6.76;97.03;98270.78;5091244;28;20107;-46
2022/12/03 03:17:39;;;;;;;30.77;22.13;;;;;;;6.80;97.02;98272.03;5091019;28;20024;-46
2022/12/03 03:20:06;;;;;;;33.70;25.58;;;;;;;6.78;96.38;98264.41;5074422;28;20513;-46
2022/12/03 03:22:40;;;;;;;32.90;20.08;;;;;;;6.68;96.20;98263.91;5091122;28;20131;-46
2022/12/03 03:25:09;;;;;;;31.02;20.83;;;;;;;6.54;95.59;98259.53;5092513;28;20023;-46
2022/12/03 03:27:36;;;;;;;28.88;20.50;;;;;;;6.40;96.60;98261.22;5092188;28;20024;-46
2022/12/03 03:30:03;;;;;;;32.05;21.77;;;;;;;6.35;96.13;98266.94;5092365;28;20073;-46
2022/12/03 03:32:29;;;;;;;36.40;23.85;;;;;;;6.33;96.31;98266.31;5091005;28;20043;-46
2022/12/03 03:34:55;;;;;;;44.20;21.33;;;;;;;6.35;96.48;98266.94;5090986;28;20027;-46
2022/12/03 03:37:22;;;;;;;35.63;21.25;;;;;;;6.38;96.33;98265.81;5090886;28;20024;-46
2022/12/03 03:39:48;;;;;;;28.55;21.20;;;;;;;6.36;96.21;98262.56;5090909;28;20057;-47
2022/12/03 03:42:14;;;;;;;34.13;22.10;;;;;;;6.35;95.77;98263.53;5092380;28;20031;-46
2022/12/03 03:44:40;;;;;;;30.63;21.13;;;;;;;6.29;96.17;98267.69;5092023;28;20498;-46
2022/12/03 03:47:06;;;;;;;31.65;20.42;;;;;;;6.20;96.08;98276.63;5090772;28;20035;-46
2022/12/03 03:49:32;;;;;;;30.75;22.23;;;;;;;6.24;96.49;98269.22;5074267;28;20028;-46
2022/12/03 03:51:58;;;;;;;31.50;21.08;;;;;;;6.26;96.03;98262.03;5090720;28;20024;-46
2022/12/03 03:54:24;;;;;;;32.90;22.23;;;;;;;6.23;95.76;98265.81;5092260;28;20397;-46
2022/12/03 03:56:50;;;;;;;32.70;20.75;;;;;;;6.13;95.88;98260.88;5092235;28;20102;-46
2022/12/03 03:59:16;;;;;;;79.30;69.95;;;;;;;6.09;95.86;98264.84;5091954;28;20023;-46
2022/12/03 04:01:43;;;;;;;33.58;23.92;;;;;;;6.11;96.08;98269.88;5090652;28;20119;-46
2022/12/03 04:04:18;;;;;;;29.90;22.30;;;;;;;6.19;97.27;98269.78;5091975;28;20033;-47
2022/12/03 04:06:44;;;;;;;33.10;22.20;;;;;;;6.29;96.97;98267.69;5090599;28;20036;-47
2022/12/03 04:09:10;;;;;;;32.33;22.05;;;;;;;6.15;95.32;98277.13;5091865;28;20035;-46
2022/12/03 04:14:20;;;;;;;33.80;22.42;;;;;;;6.14;96.93;98267.72;5091862;28;20031;-47
2022/12/03 04:16:45;;;;;;;32.25;22.52;;;;;;;6.25;96.97;98265.63;5091824;28;20024;-46
2022/12/03 04:19:11;;;;;;;34.97;22.85;;;;;;;6.31;96.94;98257.88;5091523;28;20506;-47
2022/12/03 04:24:20;;;;;;;31.52;21.55;;;;;;;6.51;96.51;98252.88;5091759;28;20047;-47
2022/12/03 04:29:30;;;;;;;32.97;20.75;;;;;;;6.66;96.80;98241.59;5091686;28;20035;-47
2022/12/03 04:37:23;;;;;;;32.13;21.65;;;;;;;6.60;95.88;98237.97;5091837;28;20027;-47
2022/12/03 04:39:49;;;;;;;30.17;21.95;;;;;;;6.58;95.96;98225.09;5093278;28;20147;-47
2022/12/03 04:42:15;;;;;;;30.85;21.77;;;;;;;6.60;95.38;98232.75;5094112;28;20053;-47
2022/12/03 04:44:42;;;;;;;36.60;22.45;;;;;;;6.58;95.57;98232.91;5095497;28;20039;-47
2022/12/03 04:47:16;;;;;;;39.03;24.25;;;;;;;6.63;95.31;98231.56;5094134;28;20039;-47
2022/12/03 04:49:44;;;;;;;31.30;23.17;;;;;;;6.62;95.54;98232.53;5094071;28;20043;-47
2022/12/03 04:52:12;;;;;;;33.00;23.42;;;;;;;6.59;95.13;98226.69;5095309;28;20458;-47
2022/12/03 04:54:38;;;;;;;35.80;22.98;;;;;;;6.63;95.42;98223.75;5095321;28;20016;-47
2022/12/03 04:57:04;;;;;;;35.40;23.40;;;;;;;6.67;95.26;98235.41;5095252;28;20562;-47
2022/12/03 04:59:31;;;;;;;39.22;23.83;;;;;;;6.58;95.20;98242.56;5093855;28;20032;-47
2022/12/03 05:01:56;;;;;;;35.63;23.20;;;;;;;6.61;95.13;98231.72;5095015;28;20028;-46
2022/12/03 05:04:22;;;;;;;34.13;23.23;;;;;;;6.59;95.44;98226.69;5093776;28;20097;-47
2022/12/03 05:06:48;;;;;;;32.08;22.85;;;;;;;6.54;95.01;98218.66;5093843;28;20016;-47
2022/12/03 05:09:14;;;;;;;35.88;23.35;;;;;;;6.51;94.56;98208.56;5093716;28;20027;-47
2022/12/03 05:11:41;;;;;;;34.72;22.80;;;;;;;6.52;95.28;98211.97;5093629;28;20126;-47
2022/12/03 05:14:06;;;;;;;37.38;22.75;;;;;;;6.49;94.42;98221.00;5093601;28;20031;-47
2022/12/03 05:16:32;;;;;;;41.00;22.85;;;;;;;6.55;94.65;98230.66;5094883;28;20012;-47
2022/12/03 05:18:58;;;;;;;34.90;21.95;;;;;;;6.65;95.04;98235.59;5093323;28;20039;-47
2022/12/03 05:21:23;;;;;;;33.10;22.50;;;;;;;6.76;94.76;98236.88;5093409;28;20043;-47
2022/12/03 05:23:49;;;;;;;36.55;23.60;;;;;;;6.82;94.31;98236.13;5093368;28;20484;-47
2022/12/03 05:26:15;;;;;;;36.78;22.90;;;;;;;6.88;94.41;98229.38;5094745;28;20028;-47
2022/12/03 05:28:41;;;;;;;32.13;22.35;;;;;;;6.94;94.47;98229.44;5093283;28;20031;-47
2022/12/03 05:31:07;;;;;;;36.22;22.00;;;;;;;6.93;93.86;98234.84;5093269;28;20046;-47
2022/12/03 05:33:33;;;;;;;34.55;22.25;;;;;;;6.86;94.04;98237.41;5093215;28;20024;-47
2022/12/03 05:35:59;;;;;;;33.58;23.23;;;;;;;6.82;93.39;98241.34;5094714;28;20028;-47
2022/12/03 05:38:24;;;;;;;34.15;23.33;;;;;;;6.73;93.23;98240.69;5093145;28;20028;-48
2022/12/03 05:40:50;;;;;;;35.72;22.35;;;;;;;6.70;93.30;98243.66;5094438;28;20020;-48
2022/12/03 05:43:15;;;;;;;33.25;21.55;;;;;;;6.69;93.60;98247.25;5094323;28;20101;-47
2022/12/03 05:45:42;;;;;;;44.08;22.63;;;;;;;6.72;93.91;98241.69;5094295;28;20024;-48
2022/12/03 05:48:11;;;;;;;32.60;21.52;;;;;;;6.77;93.74;98241.13;5094288;28;20012;-48
2022/12/03 05:50:38;;;;;;;31.20;21.83;;;;;;;6.77;93.42;98252.34;5094140;28;20099;-47
2022/12/03 05:53:04;;;;;;;37.65;23.20;;;;;;;6.70;93.20;98248.06;5094205;28;20494;-48
2022/12/03 05:55:29;;;;;;;32.30;21.92;;;;;;;6.62;93.25;98242.97;5092743;28;20038;-48
2022/12/03 05:57:55;;;;;;;33.35;22.27;;;;;;;6.59;93.36;98247.56;5092792;28;20032;-48
2022/12/03 06:00:26;;;;;;;35.63;21.60;;;;;;;6.50;92.88;98242.63;5094023;28;20409;-48
2022/12/03 06:02:53;;;;;;;39.13;24.20;;;;;;;6.39;92.85;98231.72;5092529;28;20027;-47
2022/12/03 06:05:19;;;;;;;38.90;22.85;;;;;;;6.26;92.97;98241.19;5093975;28;20024;-48
2022/12/03 06:07:46;;;;;;;34.55;23.58;;;;;;;6.10;91.81;98240.41;5093989;28;20024;-48
2022/12/03 06:10:14;;;;;;;35.47;23.27;;;;;;;5.99;92.53;98233.06;5092518;28;20560;-48
2022/12/03 06:12:41;;;;;;;35.22;22.38;;;;;;;5.99;92.94;98236.47;5093769;28;20103;-47
2022/12/03 06:15:07;;;;;;;38.10;23.38;;;;;;;6.05;93.43;98234.13;5093992;28;20028;-48
2022/12/03 06:17:33;;;;;;;31.60;21.42;;;;;;;6.11;93.09;98241.22;5093605;28;20024;-48
2022/12/03 06:19:59;;;;;;;36.92;22.52;;;;;;;6.25;93.09;98250.00;5093726;28;20409;-47
2022/12/03 06:22:24;;;;;;;31.67;21.70;;;;;;;6.32;93.60;98246.50;5092170;28;20497;-47
2022/12/03 06:24:50;;;;;;;35.65;21.70;;;;;;;6.39;93.34;98234.31;5092244;28;20020;-47
2022/12/03 06:27:16;;;;;;;31.30;20.70;;;;;;;6.50;93.09;98224.41;5093764;28;20398;-47
2022/12/03 06:29:41;;;;;;;31.45;20.80;;;;;;;6.58;92.31;98230.31;5092183;28;20486;-47
2022/12/03 06:32:07;;;;;;;28.95;18.83;;;;;;;6.66;92.24;98224.19;5092141;28;20111;-48
2022/12/03 06:34:33;;;;;;;29.80;19.92;;;;;;;6.71;92.08;98227.00;5093367;28;20404;-48
2022/12/03 06:36:59;;;;;;;32.22;21.13;;;;;;;6.70;91.94;98240.22;5091990;28;20024;-48
2022/12/03 06:39:24;;;;;;;36.17;20.70;;;;;;;6.71;91.88;98240.06;5093292;28;20028;-48
2022/12/03 06:41:50;;;;;;;30.27;19.42;;;;;;;6.73;92.33;98242.47;5091795;28;20401;-47
2022/12/03 06:44:16;;;;;;;30.50;20.17;;;;;;;6.77;91.88;98246.34;5093168;28;20020;-48
2022/12/03 06:46:41;;;;;;;33.60;19.95;;;;;;;6.79;91.46;98237.31;5091809;28;20490;-48
2022/12/03 06:49:10;;;;;;;35.58;19.75;;;;;;;6.83;91.88;98236.97;5093110;28;20024;-48
2022/12/03 06:51:36;;;;;;;31.85;18.23;;;;;;;6.76;91.83;98235.09;5093052;28;20027;-48
2022/12/03 06:54:03;;;;;;;34.92;20.75;;;;;;;6.67;91.62;98235.41;5093006;28;20053;-48
2022/12/03 06:56:29;;;;;;;33.58;21.58;;;;;;;6.52;90.65;98236.28;5091903;28;20039;-47
2022/12/03 06:58:54;;;;;;;31.08;19.65;;;;;;;6.34;91.39;98248.91;5092907;28;20024;-48
2022/12/03 07:01:20;;;;;;;31.90;21.23;;;;;;;6.24;90.53;98245.75;5090993;28;20115;-49
2022/12/03 07:03:46;;;;;;;32.17;21.23;;;;;;;6.12;90.69;98242.84;5091375;28;20116;-49
2022/12/03 07:06:12;;;;;;;30.50;20.50;;;;;;;6.10;91.65;98245.63;5091719;28;20389;-49
2022/12/03 07:08:37;;;;;;;35.10;21.65;;;;;;;6.12;92.34;98248.88;5091423;28;20024;-48
2022/12/03 07:11:03;;;;;;;29.00;20.02;;;;;;;6.07;91.86;98243.38;5091400;28;20557;-49
2022/12/03 07:13:28;;;;;;;31.27;20.98;;;;;;;6.11;92.58;98243.81;5092622;28;20035;-48
2022/12/03 07:15:54;;;;;;;34.90;20.65;;;;;;;6.16;92.56;98229.28;5092612;28;20027;-49
2022/12/03 07:18:19;;;;;;;32.05;20.70;;;;;;;6.30;91.60;98216.38;5090975;28;20048;-48
2022/12/03 07:20:45;;;;;;;33.10;19.40;;;;;;;6.44;91.20;98214.72;5092425;28;20021;-48
2022/12/03 07:23:11;;;;;;;33.63;20.45;;;;;;;6.53;90.46;98218.81;5091056;28;20028;-48
2022/12/03 07:25:36;;;;;;;32.55;20.90;;;;;;;6.64;89.54;98222.72;5092407;28;20012;-48
2022/12/03 07:28:02;;;;;;;31.95;20.75;;;;;;;6.70;89.41;98220.19;5092438;28;20028;-49
2022/12/03 07:30:28;;;;;;;30.85;20.58;;;;;;;6.74;89.28;98231.03;5092337;28;20052;-49
2022/12/03 07:32:53;;;;;;;28.20;19.20;;;;;;;6.76;89.39;98231.66;5092421;28;20055;-48
2022/12/03 07:35:19;;;;;;;30.33;20.17;;;;;;;6.84;89.43;98236.78;5091234;28;20035;-48
2022/12/03 07:37:45;;;;;;;30.70;19.67;;;;;;;6.93;89.99;98253.09;5092255;28;20024;-49
2022/12/03 07:40:11;;;;;;;32.13;20.13;;;;;;;7.02;90.03;98245.94;5090922;28;20390;-49
2022/12/03 07:42:37;;;;;;;32.83;19.98;;;;;;;7.09;90.19;98257.25;5090826;28;20081;-48
2022/12/03 07:45:03;;;;;;;31.58;20.75;;;;;;;6.99;89.64;98255.75;5092145;28;20012;-48
2022/12/03 07:47:28;;;;;;;33.33;20.55;;;;;;;7.03;89.89;98250.19;5090827;28;20028;-48
2022/12/03 07:49:54;;;;;;;30.00;20.60;;;;;;;7.13;89.57;98240.22;5090770;28;20028;-48
2022/12/03 07:52:20;;;;;;;32.00;19.63;;;;;;;7.24;89.54;98242.28;5090746;28;20168;-49
2022/12/03 07:54:45;;;;;;;33.67;20.23;;;;;;;7.31;88.39;98235.34;5090764;28;20020;-49
2022/12/03 07:57:11;;;;;;;36.13;20.08;;;;;;;7.33;87.01;98233.34;5090666;28;20103;-49
2022/12/03 07:59:36;;;;;;;36.08;20.88;;;;;;;7.34;86.65;98226.31;5091987;28;20050;-49
2022/12/03 08:02:02;;;;;;;32.42;19.50;;;;;;;7.43;86.84;98224.38;5090510;28;20030;-49
2022/12/03 08:04:28;;;;;;;32.25;19.55;;;;;;;7.52;86.81;98223.19;5091930;28;20024;-49
2022/12/03 08:06:54;;;;;;;32.67;20.38;;;;;;;7.55;85.81;98220.22;5090617;28;20031;-49
2022/12/03 08:09:20;;;;;;;31.55;19.83;;;;;;;7.62;85.71;98220.25;5091858;28;20107;-49
2022/12/03 08:11:49;;;;;;;38.30;25.40;;;;;;;7.68;85.72;98224.69;5091896;28;20028;-49
2022/12/03 08:14:18;;;;;;;31.15;20.17;;;;;;;7.70;85.66;98239.19;5092749;28;20513;-49
2022/12/03 08:16:46;;;;;;;32.72;21.63;;;;;;;7.59;85.12;98234.50;5094745;28;20115;-49
2022/12/03 08:19:16;;;;;;;31.42;20.90;;;;;;;7.48;85.59;98225.38;5094487;28;20040;-49
2022/12/03 08:21:42;;;;;;;29.10;19.80;;;;;;;7.53;85.47;98217.78;5096053;28;20056;-49
2022/12/03 08:24:19;;;;;;;32.42;20.55;;;;;;;7.58;85.48;98225.03;5094648;28;20078;-49
2022/12/03 08:26:47;;;;;;;29.42;18.73;;;;;;;7.62;85.65;98226.28;5094592;28;20153;-49
2022/12/03 08:29:16;;;;;;;36.88;20.40;;;;;;;7.63;85.64;98234.94;5096036;28;20024;-49
2022/12/03 08:31:47;;;;;;;31.85;21.13;;;;;;;7.56;85.21;98248.72;5095755;28;20020;-48
2022/12/03 08:34:26;;;;;;;32.00;19.90;;;;;;;7.54;85.72;98244.72;5095726;28;20545;-49
2022/12/03 08:37:00;;;;;;;28.95;18.80;;;;;;;7.48;85.70;98246.28;5094387;28;20024;-49
2022/12/03 08:39:36;;;;;;;26.67;19.33;;;;;;;7.45;85.75;98249.28;5095713;28;20036;-49
2022/12/03 08:42:42;;;;;;;31.65;20.05;;;;;;;7.34;85.92;98255.03;5095578;28;20055;-49
2022/12/03 08:45:30;;;;;;;28.92;20.55;;;;;;;7.23;85.02;98247.72;5095509;28;20028;-49
2022/12/03 08:48:07;;;;;;;35.60;22.55;;;;;;;7.15;85.57;98249.47;5095528;28;20016;-49
2022/12/03 08:50:39;;;;;;;29.38;21.15;;;;;;;7.05;85.72;98245.56;5095465;28;20028;-49
2022/12/03 08:53:28;;;;;;;31.85;21.42;;;;;;;7.13;86.14;98253.25;5095449;28;20020;-49
2022/12/03 08:55:56;;;;;;;35.88;24.60;;;;;;;7.27;86.76;98257.59;5095359;28;20027;-49
2022/12/03 08:58:40;;;;;;;33.05;21.08;;;;;;;7.43;86.58;98238.22;5093895;28;20049;-49
2022/12/03 09:01:11;;;;;;;34.03;20.73;;;;;;;7.59;85.70;98247.56;5095106;28;20020;-49
2022/12/03 09:03:51;;;;;;;35.50;21.05;;;;;;;7.73;85.43;98244.03;5095114;28;20099;-49
2022/12/03 09:06:17;;;;;;;32.33;21.30;;;;;;;7.75;85.71;98243.84;5095142;28;20034;-49
2022/12/03 09:08:43;;;;;;;28.42;19.98;;;;;;;7.82;85.72;98254.31;5110829;28;20024;-49
2022/12/03 09:11:09;;;;;;;31.45;19.77;;;;;;;7.91;85.64;98248.75;5094997;28;20024;-49
2022/12/03 09:13:34;;;;;;;30.55;20.58;;;;;;;8.00;84.99;98244.94;5095249;28;20525;-49
2022/12/03 09:16:00;;;;;;;28.58;19.27;;;;;;;8.16;84.55;98259.50;5094909;28;20024;-49
2022/12/03 09:18:25;;;;;;;35.15;20.48;;;;;;;8.27;84.07;98262.53;5093331;28;20094;-49
2022/12/03 09:20:51;;;;;;;35.78;22.08;;;;;;;8.38;83.52;98257.56;5093492;28;20081;-49
2022/12/03 09:23:16;;;;;;;42.28;29.58;;;;;;;8.46;82.37;98258.44;5094721;28;20020;-49
2022/12/03 09:25:42;;;;;;;36.10;23.48;;;;;;;8.47;82.21;98260.84;5094344;28;20103;-49
2022/12/03 09:28:08;;;;;;;37.90;24.17;;;;;;;8.43;81.74;98257.03;5093374;28;20024;-49
2022/12/03 09:30:33;;;;;;;42.65;26.83;;;;;;;8.32;81.31;98262.78;5094627;28;20391;-49
2022/12/03 09:32:59;;;;;;;37.42;23.65;;;;;;;8.19;80.80;98259.13;5094673;28;20016;-49
2022/12/03 09:35:26;;;;;;;56.58;26.70;;;;;;;8.09;80.68;98252.63;5094553;28;20486;-49
2022/12/03 09:37:52;;;;;;;38.67;24.05;;;;;;;8.08;80.07;98261.47;5094493;28;20045;-49
2022/12/03 09:40:19;;;;;;;45.33;24.40;;;;;;;8.02;79.80;98262.25;5094507;28;20024;-49
2022/12/03 09:42:45;;;;;;;54.15;24.17;;;;;;;7.94;80.45;98253.56;5093061;28;20050;-48
2022/12/03 09:45:13;;;;;;;38.72;21.73;;;;;;;7.92;80.09;98255.56;5110076;28;20054;-49
2022/12/03 09:47:43;;;;;;;37.55;24.25;;;;;;;7.91;79.99;98255.78;5093006;28;20031;-49
2022/12/03 09:50:13;;;;;;;39.83;23.55;;;;;;;7.91;80.40;98266.22;5094180;28;20107;-49
2022/12/03 09:52:39;;;;;;;39.47;23.67;;;;;;;7.98;80.74;98278.31;5094325;28;20479;-49
2022/12/03 09:55:14;;;;;;;40.70;25.08;;;;;;;8.07;81.03;98281.59;5094173;28;20100;-49
2022/12/03 09:57:40;;;;;;;37.42;23.73;;;;;;;8.14;81.07;98274.56;5094226;28;20028;-49
2022/12/03 10:00:15;;;;;;;37.60;24.10;;;;;;;8.12;80.66;98273.94;5092875;28;20544;-48
2022/12/03 10:02:41;;;;;;;38.33;23.20;;;;;;;8.09;80.25;98269.13;5093968;28;20024;-49
2022/12/03 10:05:07;;;;;;;39.58;21.90;;;;;;;8.01;79.29;98258.84;5092601;28;20112;-48
2022/12/03 10:07:33;;;;;;;35.10;22.52;;;;;;;8.02;78.43;98254.41;5092634;28;20111;-49
2022/12/03 10:09:59;;;;;;;44.95;25.02;;;;;;;7.99;78.33;98253.00;5092645;28;20450;-49
2022/12/03 10:12:24;;;;;;;51.33;28.63;;;;;;;7.86;79.73;98247.72;5092467;28;20562;-48
2022/12/03 10:14:52;;;;;;;51.50;24.83;;;;;;;7.73;81.27;98245.84;5093810;28;20497;-49
2022/12/03 10:17:17;;;;;;;40.00;24.98;;;;;;;7.72;81.50;98236.38;5093652;28;20019;-48
2022/12/03 10:19:43;;;;;;;45.05;24.75;;;;;;;7.77;82.20;98229.59;5092169;28;20074;-48
2022/12/03 10:22:09;;;;;;;46.88;27.25;;;;;;;7.65;82.29;98230.31;5093548;28;20087;-48
2022/12/03 10:24:36;;;;;;;42.47;23.13;;;;;;;7.54;83.38;98239.50;5092316;28;20039;-48
2022/12/03 10:27:29;;;;;;;41.88;26.00;;;;;;;7.51;84.61;98243.28;5092464;28;20115;-48
2022/12/03 10:30:00;;;;;;;42.75;24.67;;;;;;;7.59;85.42;98229.28;5092212;28;20039;-48
2022/12/03 10:32:47;;;;;;;38.63;23.40;;;;;;;7.59;85.68;98221.44;5075259;28;20063;-48
2022/12/03 10:35:14;;;;;;;45.25;25.67;;;;;;;7.59;85.97;98221.44;5092069;28;20509;-47
2022/12/03 10:38:00;;;;;;;45.00;25.23;;;;;;;7.58;86.47;98227.66;5092536;28;20540;-48
2022/12/03 10:40:31;;;;;;;50.17;26.17;;;;;;;7.56;85.87;98227.03;5093361;28;20046;-48
2022/12/03 10:43:15;;;;;;;45.42;24.77;;;;;;;7.66;87.74;98219.66;5093234;28;20074;-48
2022/12/03 10:45:41;;;;;;;48.10;26.45;;;;;;;7.75;88.27;98210.69;5091890;28;20085;-49
2022/12/03 10:48:16;;;;;;;47.80;25.27;;;;;;;7.84;88.45;98205.28;5093120;28;20025;-48
2022/12/03 10:51:06;;;;;;;43.22;24.13;;;;;;;7.91;88.46;98206.16;5093073;28;20032;-49
2022/12/03 10:53:34;;;;;;;41.85;25.33;;;;;;;8.02;88.86;98207.38;5085247;28;20078;-48
2022/12/03 10:56:03;;;;;;;47.60;25.85;;;;;;;8.08;89.13;98203.97;5092886;28;20028;-49
2022/12/03 10:58:39;;;;;;;46.63;27.08;;;;;;;8.13;88.79;98194.56;5091796;28;20024;-49
2022/12/03 11:01:37;;;;;;;40.20;24.90;;;;;;;8.18;88.46;98186.13;5092933;28;20415;-49
2022/12/03 11:04:03;;;;;;;59.58;43.83;;;;;;;8.17;86.76;98187.94;5058545;28;20493;-49
2022/12/03 11:06:31;;;;;;;38.75;23.27;;;;;;;8.10;86.13;98188.91;5092806;28;20510;-48
2022/12/03 11:08:58;;;;;;;34.72;22.85;;;;;;;8.12;85.58;98197.38;5092743;28;20016;-48
2022/12/03 11:11:29;;;;;;;47.90;25.73;;;;;;;8.11;85.01;98199.19;5092739;28;20049;-49
2022/12/03 11:14:03;;;;;;;36.03;22.88;;;;;;;8.10;84.46;98202.78;5092740;28;20027;-48
2022/12/03 11:16:40;;;;;;;32.90;21.25;;;;;;;8.13;84.65;98198.97;5092742;28;20028;-49
2022/12/03 11:19:12;;;;;;;31.00;20.83;;;;;;;8.19;84.11;98206.84;5092377;28;20051;-49
2022/12/03 11:22:03;;;;;;;34.80;24.00;;;;;;;8.13;83.23;98201.56;5091225;28;20520;-49
2022/12/03 11:24:34;;;;;;;35.22;23.50;;;;;;;8.02;83.76;98196.94;5064722;28;20513;-49
2022/12/03 11:27:18;;;;;;;33.30;20.88;;;;;;;7.92;84.18;98192.06;5058386;28;20056;-49
2022/12/03 11:29:58;;;;;;;32.97;20.58;;;;;;;7.99;83.18;98198.13;5091105;28;20024;-49
2022/12/03 11:32:42;;;;;;;32.08;20.73;;;;;;;8.05;82.64;98188.69;5092427;28;20032;-48
2022/12/03 11:35:25;;;;;;;43.38;29.80;;;;;;;8.01;82.58;98185.69;5090938;28;20025;-48
2022/12/03 11:37:51;;;;;;;35.50;23.67;;;;;;;8.01;82.13;98190.91;5092314;28;20072;-49
2022/12/03 11:40:16;;;;;;;37.33;23.50;;;;;;;7.97;82.45;98187.88;5092184;28;20069;-49
2022/12/03 11:42:43;;;;;;;33.85;21.70;;;;;;;7.99;83.17;98185.88;5090819;28;20486;-49